createdAt,value
2023-02-03T00:01:14.708Z,8.30
2023-02-03T00:05:16.671Z,8.30
2023-02-03T00:09:18.689Z,8.30
2023-02-03T00:13:20.352Z,8.30
2023-02-03T00:17:22.062Z,8.30
2023-02-03T00:21:23.670Z,8.30
2023-02-03T00:25:25.739Z,8.30
2023-02-03T00:29:30.242Z,8.30
2023-02-03T00:33:34.006Z,8.30
2023-02-03T00:37:38.947Z,8.30
2023-02-03T00:41:41.450Z,8.30
2023-02-03T00:45:43.822Z,8.20
2023-02-03T00:49:48.322Z,8.30
2023-02-03T00:53:50.413Z,8.30
2023-02-03T00:57:52.415Z,8.30
2023-02-03T01:01:54.395Z,8.30
2023-02-03T01:05:58.354Z,8.30
2023-02-03T01:10:00.477Z,8.30
2023-02-03T01:14:02.504Z,8.30
2023-02-03T01:18:04.465Z,8.30
2023-02-03T01:22:06.522Z,8.30
2023-02-03T01:26:09.711Z,8.30
2023-02-03T01:30:12.500Z,8.30
2023-02-03T01:34:16.543Z,8.30
2023-02-03T01:38:18.844Z,8.30
2023-02-03T01:42:20.826Z,8.30
2023-02-03T01:46:26.224Z,8.30
2023-02-03T01:50:33.051Z,8.30
2023-02-03T01:54:39.286Z,8.40
2023-02-03T01:58:41.885Z,8.30
2023-02-03T02:02:46.177Z,8.40
2023-02-03T02:06:48.918Z,8.40
2023-02-03T02:10:51.083Z,8.40
2023-02-03T02:14:53.914Z,8.40
2023-02-03T02:19:22.568Z,8.40
2023-02-03T02:23:53.890Z,8.50
2023-02-03T02:28:13.770Z,8.40
2023-02-03T02:32:15.813Z,8.40
2023-02-03T02:36:31.862Z,8.30
2023-02-03T02:40:33.666Z,8.30
2023-02-03T02:44:39.145Z,8.30
2023-02-03T02:48:56.557Z,8.30
2023-02-03T02:52:59.290Z,8.30
2023-02-03T02:57:03.332Z,8.30
2023-02-03T03:01:07.290Z,8.30
2023-02-03T03:05:12.267Z,8.30
2023-02-03T03:09:24.949Z,8.20
2023-02-03T03:13:29.721Z,8.30
2023-02-03T03:17:33.964Z,8.30
2023-02-03T03:21:43.401Z,8.30
2023-02-03T03:25:52.187Z,8.30
2023-02-03T05:48:22.569Z,8.40
2023-02-03T05:52:27.746Z,8.40
2023-02-03T05:56:32.281Z,8.40
2023-02-03T06:00:34.704Z,8.40
2023-02-03T06:04:58.710Z,8.40
2023-02-03T06:09:01.054Z,8.40
2023-02-03T06:13:10.917Z,8.40
2023-02-03T06:17:12.627Z,8.50
2023-02-03T06:21:14.299Z,8.40
2023-02-03T06:25:15.960Z,8.40
2023-02-03T06:29:17.604Z,8.40
2023-02-03T06:33:22.445Z,8.50
2023-02-03T06:37:27.594Z,8.50
2023-02-03T06:41:30.800Z,8.40
2023-02-03T06:45:35.726Z,8.40
2023-02-03T06:49:37.332Z,8.40
2023-02-03T06:53:38.889Z,8.40
2023-02-03T06:57:47.188Z,8.40
2023-02-03T07:01:48.865Z,8.40
2023-02-03T07:05:50.490Z,8.40
2023-02-03T07:09:52.064Z,8.40
2023-02-03T07:13:53.745Z,8.40
2023-02-03T07:17:55.364Z,8.40
2023-02-03T07:21:56.938Z,8.40
2023-02-03T07:26:02.963Z,8.40
2023-02-03T07:30:04.823Z,8.40
2023-02-03T07:34:06.508Z,8.40
2023-02-03T07:38:10.633Z,8.40
2023-02-03T07:42:14.787Z,8.40
2023-02-03T07:46:16.576Z,8.50
2023-02-03T07:50:18.520Z,8.50
2023-02-03T07:54:20.184Z,8.50
2023-02-03T07:58:21.862Z,8.50
2023-02-03T08:02:23.603Z,8.60
2023-02-03T08:06:25.269Z,8.60
2023-02-03T08:10:27.317Z,8.60
2023-02-03T08:14:29.315Z,8.60
2023-02-03T08:18:32.625Z,8.60
2023-02-03T08:22:34.463Z,8.60
2023-02-03T08:26:36.777Z,8.60
2023-02-03T08:30:38.400Z,8.60
2023-02-03T08:34:39.947Z,8.60
2023-02-03T08:38:41.879Z,8.60
2023-02-03T08:42:43.784Z,8.60
2023-02-03T08:46:45.833Z,8.60
2023-02-03T08:50:52.855Z,8.60
2023-02-03T08:54:54.543Z,8.60
2023-02-03T08:58:56.184Z,8.60
2023-02-03T09:02:57.811Z,8.60
2023-02-03T09:06:59.961Z,8.70
2023-02-03T09:11:01.680Z,8.70
2023-02-03T09:15:03.384Z,8.70
2023-02-03T09:19:05.046Z,8.70
2023-02-03T09:23:06.660Z,8.70
2023-02-03T09:27:08.451Z,8.70
2023-02-03T09:31:10.953Z,8.70
2023-02-03T09:35:12.905Z,8.70
2023-02-03T09:39:15.078Z,8.60
2023-02-03T09:43:25.495Z,8.60
2023-02-03T09:47:28.895Z,8.50
2023-02-03T09:51:40.628Z,8.50
2023-02-03T09:55:44.300Z,8.50
2023-02-03T09:59:45.948Z,8.60
2023-02-03T10:03:54.233Z,8.40
2023-02-03T10:08:05.049Z,8.40
2023-02-03T10:12:12.987Z,8.40
2023-02-03T10:16:24.057Z,8.40
2023-02-03T10:20:35.862Z,8.50
2023-02-03T10:24:43.695Z,8.50
2023-02-03T10:28:54.628Z,8.50
2023-02-03T10:33:02.095Z,8.50
2023-02-03T10:37:29.211Z,8.50
2023-02-03T10:41:32.204Z,8.60
2023-02-03T10:45:36.801Z,8.50
2023-02-03T10:49:38.418Z,8.50
2023-02-03T10:53:40.306Z,8.60
2023-02-03T10:57:44.299Z,8.50
2023-02-03T11:01:47.326Z,8.40
2023-02-03T11:06:03.005Z,8.50
2023-02-03T11:10:24.777Z,8.50
2023-02-03T11:14:26.492Z,8.60
2023-02-03T11:18:37.400Z,8.70
2023-02-03T11:22:40.255Z,8.80
2023-02-03T11:26:43.807Z,8.90
2023-02-03T11:30:45.479Z,9.00
2023-02-03T11:34:57.849Z,9.10
2023-02-03T11:39:16.770Z,9.10
2023-02-03T11:43:18.411Z,9.20
2023-02-03T11:47:22.826Z,9.20
2023-02-03T11:51:30.025Z,9.30
2023-02-03T11:55:53.809Z,9.30
2023-02-03T12:00:01.108Z,9.30
2023-02-03T12:04:06.174Z,9.40
2023-02-03T12:08:19.199Z,9.50
2023-02-03T12:12:20.736Z,9.30
2023-02-03T12:16:41.323Z,9.20
2023-02-03T12:21:01.889Z,9.20
2023-02-03T12:25:16.018Z,9.20
2023-02-03T12:29:24.781Z,9.20
2023-02-03T12:33:33.337Z,9.10
2023-02-03T12:37:55.755Z,9.00
2023-02-03T12:42:03.289Z,8.90
2023-02-03T12:46:08.256Z,8.90
2023-02-03T12:50:27.992Z,8.90
2023-02-03T12:54:29.686Z,8.80
2023-02-03T12:58:34.715Z,8.80
2023-02-03T13:02:48.543Z,8.80
2023-02-03T13:06:53.965Z,8.70
2023-02-03T13:10:59.432Z,8.80
2023-02-03T13:15:23.598Z,8.70
2023-02-03T13:19:26.602Z,8.80
2023-02-03T13:23:28.287Z,8.80
2023-02-03T13:27:36.127Z,8.80
2023-02-03T13:31:37.940Z,8.80
2023-02-03T13:35:44.807Z,8.80
2023-02-03T13:39:58.624Z,8.70
2023-02-03T13:44:00.433Z,8.70
2023-02-03T13:48:08.063Z,8.70
2023-02-03T13:52:23.482Z,8.70
2023-02-03T13:56:26.170Z,8.70
2023-02-03T14:00:43.222Z,8.70
2023-02-03T14:04:47.799Z,8.60
2023-02-03T14:08:51.971Z,8.60
2023-02-03T14:12:56.900Z,8.60
2023-02-03T14:16:58.850Z,8.70
2023-02-03T14:21:11.552Z,8.70
2023-02-03T14:25:13.171Z,8.60
2023-02-03T14:29:29.473Z,8.70
2023-02-03T14:33:49.979Z,8.60
2023-02-03T14:37:56.474Z,8.80
2023-02-03T14:42:16.911Z,8.80
2023-02-03T14:46:36.653Z,8.80
2023-02-03T14:50:46.860Z,8.70
2023-02-03T14:55:07.261Z,8.80
2023-02-03T14:59:10.022Z,8.70
2023-02-03T15:03:11.981Z,8.70
2023-02-03T15:07:32.490Z,8.70
2023-02-03T15:11:34.284Z,8.70
2023-02-03T15:15:38.687Z,8.70
2023-02-03T15:19:41.650Z,8.70
2023-02-03T15:23:48.341Z,8.70
2023-02-03T15:27:50.380Z,8.80
2023-02-03T15:31:54.676Z,8.70
2023-02-03T15:36:02.837Z,8.80
2023-02-03T15:40:07.847Z,8.80
2023-02-03T15:44:18.591Z,8.70
2023-02-03T15:48:25.605Z,8.70
2023-02-03T15:52:28.858Z,8.70
2023-02-03T15:56:42.016Z,8.80
2023-02-03T16:00:50.083Z,8.80
2023-02-03T16:09:44.466Z,8.80
2023-02-03T16:13:46.352Z,8.90
2023-02-03T16:17:54.590Z,8.90
2023-02-03T16:21:57.615Z,8.90
2023-02-03T16:26:03.538Z,8.90
2023-02-03T16:30:25.397Z,8.90
2023-02-03T16:34:51.528Z,8.90
2023-02-03T16:39:12.704Z,8.90
2023-02-03T16:43:37.688Z,8.90
2023-02-03T16:47:58.453Z,8.90
2023-02-03T16:52:00.063Z,8.90
2023-02-03T16:56:04.362Z,8.90
2023-02-03T17:00:08.650Z,8.90
2023-02-03T17:04:11.527Z,8.90
2023-02-03T17:08:13.553Z,8.80
2023-02-03T17:12:15.649Z,8.80
2023-02-03T17:16:27.030Z,8.90
2023-02-03T17:20:36.040Z,8.90
2023-02-03T17:24:37.717Z,8.80
2023-02-03T17:28:40.035Z,8.80
2023-02-03T17:32:45.040Z,8.80
2023-02-03T17:36:46.676Z,8.80
2023-02-03T17:54:07.929Z,8.80
2023-02-03T17:58:09.611Z,8.90
2023-02-03T18:02:12.007Z,8.90
2023-02-03T18:06:16.056Z,8.80
2023-02-03T18:10:18.009Z,8.90
2023-02-03T18:14:19.956Z,8.90
2023-02-03T18:18:26.246Z,8.80
2023-02-03T18:22:28.498Z,8.80
2023-02-03T18:26:33.115Z,8.80
2023-02-03T18:30:35.214Z,8.70
2023-02-03T18:34:38.057Z,8.80
2023-02-03T18:38:40.970Z,8.70
2023-02-03T18:42:43.001Z,8.80
2023-02-03T18:46:44.654Z,8.80
2023-02-03T18:50:46.950Z,8.90
2023-02-03T18:54:48.835Z,8.80
2023-02-03T18:58:52.811Z,8.90
2023-02-03T19:02:54.604Z,8.80
2023-02-03T19:06:56.471Z,8.90
2023-02-03T19:28:42.888Z,8.90
2023-02-03T19:32:46.908Z,8.80
2023-02-03T19:36:53.522Z,8.80
2023-02-03T19:40:55.685Z,8.70
2023-02-03T19:44:57.937Z,8.80
2023-02-03T19:49:00.099Z,8.70
2023-02-03T19:53:02.154Z,8.70
2023-02-03T19:57:03.935Z,8.60
2023-02-03T20:01:06.965Z,8.60
2023-02-03T20:05:15.018Z,8.60
2023-02-03T20:09:18.711Z,8.60
2023-02-03T20:13:29.020Z,8.50
2023-02-03T20:17:42.290Z,8.40
2023-02-03T20:21:48.707Z,8.50
2023-02-03T20:25:51.349Z,8.50
2023-02-03T20:30:03.512Z,8.50
2023-02-03T20:34:06.316Z,8.50
2023-02-03T20:38:10.708Z,8.60
2023-02-03T20:42:20.296Z,8.50
2023-02-03T20:46:23.923Z,8.50
2023-02-03T20:50:40.578Z,8.50
2023-02-03T20:54:43.900Z,8.40
2023-02-03T20:58:45.896Z,8.40
2023-02-03T21:03:12.692Z,8.40
2023-02-03T21:07:38.411Z,8.40
2023-02-03T21:11:59.490Z,8.30
2023-02-03T21:16:18.786Z,8.30
2023-02-03T21:20:37.202Z,8.20
2023-02-03T21:24:42.831Z,8.00
2023-02-03T21:28:48.049Z,8.00
2023-02-03T21:32:50.516Z,7.80
2023-02-03T21:36:52.466Z,7.80
2023-02-03T21:41:01.632Z,7.70
2023-02-03T21:45:31.461Z,7.60
2023-02-03T21:49:37.943Z,7.50
2023-02-03T21:53:41.323Z,7.40
2023-02-03T21:58:12.158Z,7.40
2023-02-03T22:02:37.409Z,7.50
2023-02-03T22:06:49.492Z,7.40
2023-02-03T22:10:51.632Z,7.30
2023-02-03T22:14:58.697Z,7.40
2023-02-03T22:19:01.211Z,7.40
2023-02-03T22:23:06.537Z,7.40
2023-02-03T22:27:08.603Z,7.40
2023-02-03T22:31:27.564Z,7.30
2023-02-03T22:35:30.256Z,7.20
2023-02-03T22:39:32.552Z,7.20
2023-02-03T22:43:34.364Z,7.10
2023-02-03T22:47:36.164Z,7.10
2023-02-03T22:51:38.132Z,6.90
2023-02-03T22:55:39.985Z,6.90
2023-02-03T22:59:41.646Z,6.90
2023-02-03T23:03:43.308Z,6.80
2023-02-03T23:07:45.345Z,6.60
2023-02-03T23:11:50.749Z,6.70
2023-02-03T23:15:52.499Z,6.60
2023-02-03T23:19:54.083Z,6.50
2023-02-03T23:23:55.650Z,6.50
2023-02-03T23:27:58.036Z,6.40
2023-02-03T23:32:00.156Z,6.40
2023-02-03T23:36:01.762Z,6.40
2023-02-03T23:40:03.997Z,6.40
2023-02-03T23:44:05.516Z,6.40
2023-02-03T23:48:07.193Z,6.40
2023-02-03T23:52:08.767Z,6.40
2023-02-03T23:56:10.353Z,6.40
